Time,TemperatureF,DewpointF,PressureIn,WindDirection,WindDirectionDegrees,WindSpeedMPH,WindSpeedGustMPH,Humidity,HourlyPrecipIn,Conditions,Clouds,dailyrainin,SoftwareType,DateUTC
2013-02-11 00:00:00,48.7,31.9,30.01,WNW,291,15.0,28.0,52,0.00,,---,0.00,VWS V14.00,2013-02-11 08:00:00,
2013-02-11 00:05:00,48.7,31.4,30.01,NW,308,10.0,21.0,51,0.00,,---,0.00,VWS V14.00,2013-02-11 08:05:00,
2013-02-11 00:10:00,48.9,30.6,30.01,NW,309,7.0,16.0,49,0.00,,---,0.00,VWS V14.00,2013-02-11 08:10:00,
2013-02-11 00:15:00,49.8,28.8,30.01,WNW,298,16.0,20.0,44,0.00,,---,0.00,VWS V14.00,2013-02-11 08:15:00,
2013-02-11 00:20:00,49.6,29.7,30.01,WNW,300,10.0,19.0,46,0.00,,---,0.00,VWS V14.00,2013-02-11 08:20:00,
2013-02-11 00:25:00,50.1,29.6,30.01,WNW,298,7.0,20.0,45,0.00,,---,0.00,VWS V14.00,2013-02-11 08:25:00,
2013-02-11 00:30:00,50.2,28.6,30.01,WNW,300,16.0,24.0,43,0.00,,---,0.00,VWS V14.00,2013-02-11 08:30:00,
2013-02-11 00:35:00,50.3,28.1,30.01,NW,321,16.0,22.0,42,0.00,,---,0.00,VWS V14.00,2013-02-11 08:35:00,
2013-02-11 00:40:00,50.2,29.7,30.01,NW,319,17.0,27.0,45,0.00,,---,0.00,VWS V14.00,2013-02-11 08:40:00,
2013-02-11 00:45:00,49.5,31.1,30.01,WNW,297,15.0,24.0,49,0.00,,---,0.00,VWS V14.00,2013-02-11 08:45:00,
2013-02-11 00:50:00,49.1,30.8,30.01,NW,307,9.0,21.0,49,0.00,,---,0.00,VWS V14.00,2013-02-11 08:50:00,
2013-02-11 00:55:00,49.3,29.9,30.01,NW,322,10.0,19.0,47,0.00,,---,0.00,VWS V14.00,2013-02-11 08:55:00,
2013-02-11 01:00:00,49.7,29.8,30.01,North,355,12.0,26.0,46,0.00,,---,0.00,VWS V14.00,2013-02-11 09:00:00,
2013-02-11 01:05:00,50.0,30.0,30.01,NNW,343,17.0,19.0,46,0.00,,---,0.00,VWS V14.00,2013-02-11 09:05:00,
2013-02-11 01:10:00,50.2,30.8,30.01,NNW,344,17.0,26.0,47,0.00,,---,0.00,VWS V14.00,2013-02-11 09:10:00,
2013-02-11 01:15:00,50.1,30.7,30.00,NNE,29,20.0,26.0,47,0.00,,---,0.00,VWS V14.00,2013-02-11 09:15:00,
2013-02-11 01:21:00,50.0,31.1,30.00,NNE,30,20.0,35.0,48,0.00,,---,0.00,VWS V14.00,2013-02-11 09:21:00,
2013-02-11 01:26:00,49.9,31.0,30.00,NE,43,24.0,45.0,48,0.00,,---,0.00,VWS V14.00,2013-02-11 09:26:00,
2013-02-11 01:31:00,49.6,31.2,30.00,NNE,24,30.0,50.0,49,0.00,,---,0.00,VWS V14.00,2013-02-11 09:31:00,
2013-02-11 01:36:00,49.4,31.6,30.01,NNE,22,16.0,40.0,50,0.00,,---,0.00,VWS V14.00,2013-02-11 09:36:00,
2013-02-11 01:41:00,49.0,32.2,30.01,NNE,16,40.0,50.0,52,0.00,,---,0.00,VWS V14.00,2013-02-11 09:41:00,
2013-02-11 01:46:00,48.7,31.4,30.01,NNE,28,32.0,42.0,51,0.00,,---,0.00,VWS V14.00,2013-02-11 09:46:00,
2013-02-11 01:51:00,48.6,30.3,30.01,NE,45,42.0,56.0,49,0.00,,---,0.00,VWS V14.00,2013-02-11 09:51:00,
2013-02-11 01:56:00,48.6,30.3,30.01,NNE,23,19.0,48.0,49,0.00,,---,0.00,VWS V14.00,2013-02-11 09:56:00,
2013-02-11 02:01:00,48.6,30.3,30.01,NNE,30,17.0,44.0,49,0.00,,---,0.00,VWS V14.00,2013-02-11 10:01:00,
2013-02-11 02:06:00,48.8,30.0,30.02,NNE,27,37.0,52.0,48,0.00,,---,0.00,VWS V14.00,2013-02-11 10:06:00,
2013-02-11 02:11:00,48.7,30.4,30.02,NNE,17,23.0,45.0,49,0.00,,---,0.00,VWS V14.00,2013-02-11 10:11:00,
2013-02-11 02:16:00,48.3,30.0,30.02,North,355,24.0,45.0,49,0.00,,---,0.00,VWS V14.00,2013-02-11 10:16:00,
2013-02-11 02:21:00,48.1,30.4,30.02,NNE,23,35.0,59.0,50,0.00,,---,0.00,VWS V14.00,2013-02-11 10:21:00,
2013-02-11 02:26:00,47.9,29.7,30.01,NNE,31,32.0,43.0,49,0.00,,---,0.00,VWS V14.00,2013-02-11 10:26:00,
2013-02-11 02:31:00,48.4,29.1,30.01,NE,47,36.0,45.0,47,0.00,,---,0.00,VWS V14.00,2013-02-11 10:31:00,
2013-02-11 02:36:00,48.6,29.3,30.00,NE,37,30.0,44.0,47,0.00,,---,0.00,VWS V14.00,2013-02-11 10:36:00,
2013-02-11 02:41:00,48.7,28.9,30.01,NNE,30,20.0,38.0,46,0.00,,---,0.00,VWS V14.00,2013-02-11 10:41:00,
2013-02-11 02:46:00,48.9,28.5,30.01,North,360,18.0,31.0,45,0.00,,---,0.00,VWS V14.00,2013-02-11 10:46:00,
2013-02-11 02:51:00,49.1,28.7,30.01,NNW,344,11.0,28.0,45,0.00,,---,0.00,VWS V14.00,2013-02-11 10:51:00,
2013-02-11 02:56:00,49.4,27.9,30.02,NW,304,12.0,23.0,43,0.00,,---,0.00,VWS V14.00,2013-02-11 10:56:00,
2013-02-11 03:01:00,49.6,28.0,30.02,NW,306,18.0,20.0,43,0.00,,---,0.00,VWS V14.00,2013-02-11 11:01:00,
2013-02-11 03:06:00,49.3,29.4,30.02,West,281,18.0,23.0,46,0.00,,---,0.00,VWS V14.00,2013-02-11 11:06:00,
2013-02-11 03:11:00,48.4,29.1,30.02,West,281,12.0,20.0,47,0.00,,---,0.00,VWS V14.00,2013-02-11 11:11:00,
2013-02-11 03:16:00,48.2,28.9,30.02,WNW,294,6.0,18.0,47,0.00,,---,0.00,VWS V14.00,2013-02-11 11:16:00,
2013-02-11 03:21:00,48.2,28.9,30.02,WNW,288,6.0,16.0,47,0.00,,---,0.00,VWS V14.00,2013-02-11 11:21:00,
2013-02-11 03:26:00,48.2,30.0,30.02,WNW,289,0.0,12.0,49,0.00,,---,0.00,VWS V14.00,2013-02-11 11:26:00,
2013-02-11 03:31:00,48.1,28.8,30.02,WNW,288,9.0,11.0,47,0.00,,---,0.00,VWS V14.00,2013-02-11 11:31:00,
2013-02-11 03:36:00,47.8,29.6,30.01,WNW,288,10.0,14.0,49,0.00,,---,0.00,VWS V14.00,2013-02-11 11:36:00,
2013-02-11 03:41:00,47.5,29.3,30.02,WNW,286,2.0,14.0,49,0.00,,---,0.00,VWS V14.00,2013-02-11 11:41:00,
2013-02-11 03:46:00,47.4,29.2,30.02,WNW,286,8.0,11.0,49,0.00,,---,0.00,VWS V14.00,2013-02-11 11:46:00,
2013-02-11 03:51:00,47.4,29.7,30.02,WNW,286,0.0,9.0,50,0.00,,---,0.00,VWS V14.00,2013-02-11 11:51:00,
2013-02-11 03:56:00,47.4,29.7,30.02,WNW,287,9.0,14.0,50,0.00,,---,0.00,VWS V14.00,2013-02-11 11:56:00,
2013-02-11 04:01:00,47.3,30.1,30.02,WNW,287,1.0,12.0,51,0.00,,---,0.00,VWS V14.00,2013-02-11 12:01:00,
2013-02-11 04:06:00,47.2,30.5,30.02,WNW,287,2.0,9.0,52,0.00,,---,0.00,VWS V14.00,2013-02-11 12:06:00,
2013-02-11 04:11:00,47.1,30.4,30.02,WNW,287,1.0,10.0,52,0.00,,---,0.00,VWS V14.00,2013-02-11 12:11:00,
2013-02-11 04:16:00,47.1,31.3,30.02,WNW,287,9.0,10.0,54,0.00,,---,0.00,VWS V14.00,2013-02-11 12:16:00,
2013-02-11 04:21:00,47.2,31.9,30.02,WNW,287,1.0,9.0,55,0.00,,---,0.00,VWS V14.00,2013-02-11 12:21:00,
2013-02-11 04:26:00,47.3,32.4,30.02,WNW,287,1.0,10.0,56,0.00,,---,0.00,VWS V14.00,2013-02-11 12:26:00,
2013-02-11 04:31:00,47.1,32.2,30.02,WNW,287,1.0,8.0,56,0.00,,---,0.00,VWS V14.00,2013-02-11 12:31:00,
2013-02-11 04:36:00,46.9,32.0,30.02,WNW,287,6.0,10.0,56,0.00,,---,0.00,VWS V14.00,2013-02-11 12:36:00,
2013-02-11 04:41:00,47.2,30.0,30.02,WNW,292,10.0,17.0,51,0.00,,---,0.00,VWS V14.00,2013-02-11 12:41:00,
2013-02-11 04:46:00,48.0,29.3,30.02,WNW,293,11.0,14.0,48,0.00,,---,0.00,VWS V14.00,2013-02-11 12:46:00,
2013-02-11 04:51:00,48.4,28.0,30.02,WNW,292,15.0,15.0,45,0.00,,---,0.00,VWS V14.00,2013-02-11 12:51:00,
2013-02-11 04:56:00,48.4,30.6,30.03,WNW,296,9.0,18.0,50,0.00,,---,0.00,VWS V14.00,2013-02-11 12:56:00,
2013-02-11 05:01:00,47.7,32.8,30.03,WNW,287,19.0,19.0,56,0.00,,---,0.00,VWS V14.00,2013-02-11 13:01:00,
2013-02-11 05:06:00,47.7,32.3,30.03,WNW,291,11.0,23.0,55,0.00,,---,0.00,VWS V14.00,2013-02-11 13:06:00,
2013-02-11 05:11:00,47.5,32.2,30.03,WNW,297,6.0,22.0,55,0.00,,---,0.00,VWS V14.00,2013-02-11 13:11:00,
2013-02-11 05:16:00,49.1,25.8,30.03,NNW,346,12.0,32.0,40,0.00,,---,0.00,VWS V14.00,2013-02-11 13:16:00,
2013-02-11 05:21:00,49.7,25.8,30.03,NNW,340,5.0,18.0,39,0.00,,---,0.00,VWS V14.00,2013-02-11 13:21:00,
2013-02-11 05:26:00,49.9,25.3,30.03,NNW,340,19.0,30.0,38,0.00,,---,0.00,VWS V14.00,2013-02-11 13:26:00,
2013-02-11 05:31:00,50.0,24.8,30.03,NNW,339,24.0,32.0,37,0.00,,---,0.00,VWS V14.00,2013-02-11 13:31:00,
2013-02-11 05:36:00,50.1,24.2,30.03,North,350,14.0,32.0,36,0.00,,---,0.00,VWS V14.00,2013-02-11 13:36:00,
2013-02-11 05:41:00,49.9,24.7,30.03,NNW,344,8.0,27.0,37,0.00,,---,0.00,VWS V14.00,2013-02-11 13:41:00,
2013-02-11 05:46:00,49.8,24.6,30.03,NNW,347,23.0,31.0,37,0.00,,---,0.00,VWS V14.00,2013-02-11 13:46:00,
2013-02-11 05:51:00,49.6,24.4,30.03,NW,315,30.0,33.0,37,0.00,,---,0.00,VWS V14.00,2013-02-11 13:51:00,
2013-02-11 05:56:00,49.5,24.3,30.04,NNW,346,7.0,30.0,37,0.00,,---,0.00,VWS V14.00,2013-02-11 13:56:00,
2013-02-11 06:01:00,49.4,23.6,30.04,NW,325,15.0,35.0,36,0.00,,---,0.00,VWS V14.00,2013-02-11 14:01:00,
2013-02-11 06:06:00,49.2,23.4,30.04,NNW,346,13.0,21.0,36,0.00,,---,0.00,VWS V14.00,2013-02-11 14:06:00,
2013-02-11 06:11:00,49.0,23.2,30.05,WNW,303,22.0,34.0,36,0.00,,---,0.00,VWS V14.00,2013-02-11 14:11:00,
2013-02-11 06:16:00,49.0,22.6,30.05,North,355,14.0,30.0,35,0.00,,---,0.00,VWS V14.00,2013-02-11 14:16:00,
2013-02-11 06:21:00,49.0,22.6,30.05,NNW,346,20.0,35.0,35,0.00,,---,0.00,VWS V14.00,2013-02-11 14:21:00,
2013-02-11 06:26:00,49.0,22.6,30.05,North,355,29.0,38.0,35,0.00,,---,0.00,VWS V14.00,2013-02-11 14:26:00,
2013-02-11 06:31:00,49.0,22.6,30.04,NNE,18,16.0,42.0,35,0.00,,---,0.00,VWS V14.00,2013-02-11 14:31:00,
2013-02-11 06:36:00,48.9,21.8,30.05,NNE,26,37.0,44.0,34,0.00,,---,0.00,VWS V14.00,2013-02-11 14:36:00,
2013-02-11 06:41:00,48.8,21.7,30.05,NNE,32,27.0,46.0,34,0.00,,---,0.00,VWS V14.00,2013-02-11 14:41:00,
2013-02-11 06:46:00,48.7,21.6,30.05,NNE,23,20.0,42.0,34,0.00,,---,0.00,VWS V14.00,2013-02-11 14:46:00,
2013-02-11 06:51:00,48.7,21.6,30.05,NE,41,33.0,51.0,34,0.00,,---,0.00,VWS V14.00,2013-02-11 14:51:00,
2013-02-11 06:56:00,48.8,21.7,30.06,North,5,33.0,43.0,34,0.00,,---,0.00,VWS V14.00,2013-02-11 14:56:00,
2013-02-11 07:01:00,48.8,21.0,30.06,NNE,13,17.0,38.0,33,0.00,,---,0.00,VWS V14.00,2013-02-11 15:01:00,
2013-02-11 07:06:00,49.0,21.2,30.07,NNE,24,30.0,38.0,33,0.00,,---,0.00,VWS V14.00,2013-02-11 15:06:00,
2013-02-11 07:11:00,49.0,21.2,30.07,North,360,15.0,39.0,33,0.00,,---,0.00,VWS V14.00,2013-02-11 15:11:00,
2013-02-11 07:16:00,49.1,21.3,30.07,North,360,26.0,34.0,33,0.00,,---,0.00,VWS V14.00,2013-02-11 15:16:00,
2013-02-11 07:21:00,49.3,21.4,30.07,NNE,17,30.0,37.0,33,0.00,,---,0.00,VWS V14.00,2013-02-11 15:21:00,
2013-02-11 07:26:00,49.5,21.6,30.07,North,5,18.0,25.0,33,0.00,,---,0.00,VWS V14.00,2013-02-11 15:26:00,
2013-02-11 07:31:00,49.6,21.0,30.08,NNW,340,24.0,32.0,32,0.00,,---,0.00,VWS V14.00,2013-02-11 15:31:00,
2013-02-11 07:36:00,49.7,21.8,30.08,North,349,22.0,26.0,33,0.00,,---,0.00,VWS V14.00,2013-02-11 15:36:00,
2013-02-11 07:41:00,49.8,21.1,30.08,NNE,12,24.0,34.0,32,0.00,,---,0.00,VWS V14.00,2013-02-11 15:41:00,
2013-02-11 07:46:00,50.0,21.3,30.08,North,5,17.0,25.0,32,0.00,,---,0.00,VWS V14.00,2013-02-11 15:46:00,
2013-02-11 07:52:00,50.1,21.4,30.09,North,355,22.0,24.0,32,0.00,,---,0.00,VWS V14.00,2013-02-11 15:52:00,
2013-02-11 07:57:00,50.3,21.6,30.09,NNW,341,29.0,32.0,32,0.00,,---,0.00,VWS V14.00,2013-02-11 15:57:00,
2013-02-11 08:02:00,50.6,21.9,30.10,NNW,328,18.0,25.0,32,0.00,,---,0.00,VWS V14.00,2013-02-11 16:02:00,
2013-02-11 08:07:00,50.7,21.9,30.10,NNW,338,9.0,16.0,32,0.00,,---,0.00,VWS V14.00,2013-02-11 16:07:00,
2013-02-11 08:12:00,50.9,21.4,30.11,NNW,346,20.0,31.0,31,0.00,,---,0.00,VWS V14.00,2013-02-11 16:12:00,
2013-02-11 08:17:00,51.2,20.9,30.10,North,355,27.0,28.0,30,0.00,,---,0.00,VWS V14.00,2013-02-11 16:17:00,
2013-02-11 08:22:00,51.3,20.9,30.11,NNE,14,12.0,30.0,30,0.00,,---,0.00,VWS V14.00,2013-02-11 16:22:00,
2013-02-11 08:27:00,51.4,21.0,30.10,NW,323,17.0,31.0,30,0.00,,---,0.00,VWS V14.00,2013-02-11 16:27:00,
2013-02-11 08:32:00,51.5,21.9,30.11,NNW,336,16.0,16.0,31,0.00,,---,0.00,VWS V14.00,2013-02-11 16:32:00,
2013-02-11 08:37:00,51.7,21.3,30.11,NNW,332,15.0,23.0,30,0.00,,---,0.00,VWS V14.00,2013-02-11 16:37:00,
2013-02-11 08:42:00,51.9,21.5,30.11,NNW,348,12.0,24.0,30,0.00,,---,0.00,VWS V14.00,2013-02-11 16:42:00,
2013-02-11 08:47:00,52.1,21.6,30.11,North,355,10.0,12.0,30,0.00,,---,0.00,VWS V14.00,2013-02-11 16:47:00,
2013-02-11 08:52:00,52.4,21.9,30.11,NW,322,6.0,15.0,30,0.00,,---,0.00,VWS V14.00,2013-02-11 16:52:00,
2013-02-11 08:57:00,52.6,21.3,30.11,NW,309,12.0,19.0,29,0.00,,---,0.00,VWS V14.00,2013-02-11 16:57:00,
2013-02-11 09:02:00,52.7,21.4,30.12,NW,315,6.0,14.0,29,0.00,,---,0.00,VWS V14.00,2013-02-11 17:02:00,
2013-02-11 09:07:00,53.1,21.7,30.12,North,350,7.0,17.0,29,0.00,,---,0.00,VWS V14.00,2013-02-11 17:07:00,
2013-02-11 09:12:00,53.2,21.8,30.11,NW,326,21.0,32.0,29,0.00,,---,0.00,VWS V14.00,2013-02-11 17:12:00,
2013-02-11 09:17:00,53.2,21.8,30.12,NW,311,25.0,30.0,29,0.00,,---,0.00,VWS V14.00,2013-02-11 17:17:00,
2013-02-11 09:22:00,53.4,22.8,30.12,NNE,16,7.0,14.0,30,0.00,,---,0.00,VWS V14.00,2013-02-11 17:22:00,
2013-02-11 09:27:00,53.5,22.0,30.12,NNW,335,24.0,26.0,29,0.00,,---,0.00,VWS V14.00,2013-02-11 17:27:00,
2013-02-11 09:32:00,53.3,22.7,30.12,WNW,297,19.0,23.0,30,0.00,,---,0.00,VWS V14.00,2013-02-11 17:32:00,
2013-02-11 09:37:00,53.5,22.9,30.12,NW,321,20.0,25.0,30,0.00,,---,0.00,VWS V14.00,2013-02-11 17:37:00,
2013-02-11 09:42:00,53.6,22.9,30.13,WNW,300,18.0,27.0,30,0.00,,---,0.00,VWS V14.00,2013-02-11 17:42:00,
2013-02-11 09:47:00,53.5,22.9,30.13,NNW,346,27.0,31.0,30,0.00,,---,0.00,VWS V14.00,2013-02-11 17:47:00,
2013-02-11 09:52:00,53.5,22.9,30.13,NNW,336,6.0,17.0,30,0.00,,---,0.00,VWS V14.00,2013-02-11 17:52:00,
2013-02-11 09:57:00,53.9,23.2,30.13,NNW,348,18.0,27.0,30,0.00,,---,0.00,VWS V14.00,2013-02-11 17:57:00,
2013-02-11 10:02:00,53.7,23.0,30.13,NNW,327,23.0,30.0,30,0.00,,---,0.00,VWS V14.00,2013-02-11 18:02:00,
2013-02-11 10:07:00,53.9,23.2,30.14,NNW,344,19.0,28.0,30,0.00,,---,0.00,VWS V14.00,2013-02-11 18:07:00,
2013-02-11 10:12:00,54.2,22.6,30.14,NNW,342,8.0,20.0,29,0.00,,---,0.00,VWS V14.00,2013-02-11 18:12:00,
2013-02-11 10:17:00,54.1,23.4,30.14,NNW,344,17.0,19.0,30,0.00,,---,0.00,VWS V14.00,2013-02-11 18:17:00,
2013-02-11 10:22:00,54.2,22.6,30.14,NNE,15,6.0,28.0,29,0.00,,---,0.00,VWS V14.00,2013-02-11 18:22:00,
2013-02-11 10:27:00,54.6,23.0,30.14,NNW,328,6.0,23.0,29,0.00,,---,0.00,VWS V14.00,2013-02-11 18:27:00,
2013-02-11 10:32:00,54.4,22.0,30.14,NNW,332,22.0,22.0,28,0.00,,---,0.00,VWS V14.00,2013-02-11 18:32:00,
2013-02-11 10:37:00,54.6,22.2,30.14,NW,325,11.0,26.0,28,0.00,,---,0.00,VWS V14.00,2013-02-11 18:37:00,
2013-02-11 10:42:00,54.9,21.6,30.14,NNW,344,16.0,26.0,27,0.00,,---,0.00,VWS V14.00,2013-02-11 18:42:00,
2013-02-11 10:47:00,55.3,21.0,30.14,NE,37,13.0,21.0,26,0.00,,---,0.00,VWS V14.00,2013-02-11 18:47:00,
2013-02-11 10:52:00,55.5,20.3,30.14,NNW,339,21.0,26.0,25,0.00,,---,0.00,VWS V14.00,2013-02-11 18:52:00,
2013-02-11 10:57:00,55.7,20.4,30.14,NNE,26,10.0,28.0,25,0.00,,---,0.00,VWS V14.00,2013-02-11 18:57:00,
2013-02-11 11:02:00,55.9,19.6,30.14,NE,46,23.0,33.0,24,0.00,,---,0.00,VWS V14.00,2013-02-11 19:02:00,
2013-02-11 11:07:00,56.2,19.9,30.13,NE,42,19.0,31.0,24,0.00,,---,0.00,VWS V14.00,2013-02-11 19:07:00,
2013-02-11 11:12:00,55.8,19.6,30.13,NNE,12,21.0,25.0,24,0.00,,---,0.00,VWS V14.00,2013-02-11 19:12:00,
2013-02-11 11:17:00,56.1,19.8,30.14,North,11,30.0,30.0,24,0.00,,---,0.00,VWS V14.00,2013-02-11 19:17:00,
2013-02-11 11:22:00,56.1,19.8,30.13,NNE,28,18.0,30.0,24,0.00,,---,0.00,VWS V14.00,2013-02-11 19:22:00,
2013-02-11 11:27:00,56.2,17.9,30.13,North,355,31.0,35.0,22,0.00,,---,0.00,VWS V14.00,2013-02-11 19:27:00,
2013-02-11 11:32:00,56.4,18.0,30.13,NE,36,15.0,28.0,22,0.00,,---,0.00,VWS V14.00,2013-02-11 19:32:00,
2013-02-11 11:37:00,56.6,17.1,30.13,NNE,24,28.0,35.0,21,0.00,,---,0.00,VWS V14.00,2013-02-11 19:37:00,
2013-02-11 11:42:00,57.0,18.5,30.13,North,355,29.0,40.0,22,0.00,,---,0.00,VWS V14.00,2013-02-11 19:42:00,
2013-02-11 11:47:00,57.2,17.6,30.12,NNE,19,15.0,22.0,21,0.00,,---,0.00,VWS V14.00,2013-02-11 19:47:00,
2013-02-11 11:52:00,57.6,18.0,30.12,NNW,331,24.0,30.0,21,0.00,,---,0.00,VWS V14.00,2013-02-11 19:52:00,
2013-02-11 11:57:00,56.8,17.3,30.12,North,5,16.0,18.0,21,0.00,,---,0.00,VWS V14.00,2013-02-11 19:57:00,
2013-02-11 12:02:00,57.0,17.5,30.11,NNE,15,22.0,25.0,21,0.00,,---,0.00,VWS V14.00,2013-02-11 20:02:00,
2013-02-11 12:07:00,57.3,17.7,30.12,NNE,30,26.0,26.0,21,0.00,,---,0.00,VWS V14.00,2013-02-11 20:07:00,
2013-02-11 12:12:00,57.2,18.7,30.11,NW,317,23.0,23.0,22,0.00,,---,0.00,VWS V14.00,2013-02-11 20:12:00,
2013-02-11 12:17:00,57.2,17.6,30.11,NNW,344,18.0,23.0,21,0.00,,---,0.00,VWS V14.00,2013-02-11 20:17:00,
2013-02-11 12:22:00,57.3,16.6,30.11,NNE,13,40.0,40.0,20,0.00,,---,0.00,VWS V14.00,2013-02-11 20:22:00,
2013-02-11 12:27:00,57.1,15.2,30.11,NNE,30,18.0,33.0,19,0.00,,---,0.00,VWS V14.00,2013-02-11 20:27:00,
2013-02-11 12:32:00,57.6,15.7,30.11,NNW,344,27.0,27.0,19,0.00,,---,0.00,VWS V14.00,2013-02-11 20:32:00,
2013-02-11 12:37:00,58.2,13.6,30.11,NNE,26,29.0,33.0,17,0.00,,---,0.00,VWS V14.00,2013-02-11 20:37:00,
2013-02-11 12:42:00,57.5,13.1,30.11,NNE,20,16.0,34.0,17,0.00,,---,0.00,VWS V14.00,2013-02-11 20:42:00,
2013-02-11 12:47:00,57.7,13.2,30.10,North,355,10.0,24.0,17,0.00,,---,0.00,VWS V14.00,2013-02-11 20:47:00,
2013-02-11 12:52:00,58.3,13.7,30.10,North,355,16.0,31.0,17,0.00,,---,0.00,VWS V14.00,2013-02-11 20:52:00,
2013-02-11 12:57:00,58.3,12.3,30.10,NNW,327,26.0,28.0,16,0.00,,---,0.00,VWS V14.00,2013-02-11 20:57:00,
2013-02-11 13:02:00,58.4,12.4,30.10,North,11,31.0,36.0,16,0.00,,---,0.00,VWS V14.00,2013-02-11 21:02:00,
2013-02-11 13:07:00,58.3,12.3,30.10,NNW,330,20.0,23.0,16,0.00,,---,0.00,VWS V14.00,2013-02-11 21:07:00,
2013-02-11 13:12:00,58.3,10.9,30.10,NNW,331,30.0,42.0,15,0.00,,---,0.00,VWS V14.00,2013-02-11 21:12:00,
2013-02-11 13:17:00,58.3,9.3,30.10,NNW,330,18.0,35.0,14,0.00,,---,0.00,VWS V14.00,2013-02-11 21:17:00,
2013-02-11 13:22:00,58.2,9.2,30.10,NW,324,27.0,40.0,14,0.00,,---,0.00,VWS V14.00,2013-02-11 21:22:00,
2013-02-11 13:27:00,58.0,10.6,30.10,NNW,337,24.0,36.0,15,0.00,,---,0.00,VWS V14.00,2013-02-11 21:27:00,
2013-02-11 13:32:00,58.1,10.7,30.10,NE,44,20.0,30.0,15,0.00,,---,0.00,VWS V14.00,2013-02-11 21:32:00,
2013-02-11 13:37:00,58.1,9.2,30.10,North,355,24.0,34.0,14,0.00,,---,0.00,VWS V14.00,2013-02-11 21:37:00,
2013-02-11 13:42:00,58.1,7.5,30.10,NNE,15,16.0,30.0,13,0.00,,---,0.00,VWS V14.00,2013-02-11 21:42:00,
2013-02-11 13:47:00,58.1,10.7,30.09,NE,55,17.0,33.0,15,0.00,,---,0.00,VWS V14.00,2013-02-11 21:47:00,
2013-02-11 13:52:00,58.6,9.6,30.10,NW,323,31.0,36.0,14,0.00,,---,0.00,VWS V14.00,2013-02-11 21:52:00,
2013-02-11 13:57:00,58.6,9.6,30.10,North,9,9.0,28.0,14,0.00,,---,0.00,VWS V14.00,2013-02-11 21:57:00,
2013-02-11 14:03:00,58.9,9.8,30.10,NW,322,18.0,18.0,14,0.00,,---,0.00,VWS V14.00,2013-02-11 22:03:00,
2013-02-11 14:08:00,58.6,7.9,30.10,NNW,338,19.0,24.0,13,0.00,,---,0.00,VWS V14.00,2013-02-11 22:08:00,
2013-02-11 14:13:00,58.5,7.8,30.10,NNW,346,20.0,23.0,13,0.00,,---,0.00,VWS V14.00,2013-02-11 22:13:00,
2013-02-11 14:18:00,58.7,8.0,30.10,NNW,340,19.0,40.0,13,0.00,,---,0.00,VWS V14.00,2013-02-11 22:18:00,
2013-02-11 14:23:00,58.6,7.9,30.09,NW,322,18.0,35.0,13,0.00,,---,0.00,VWS V14.00,2013-02-11 22:23:00,
2013-02-11 14:28:00,58.4,4.1,30.09,NNW,338,13.0,38.0,11,0.00,,---,0.00,VWS V14.00,2013-02-11 22:28:00,
2013-02-11 14:33:00,58.5,6.1,30.10,NW,324,26.0,38.0,12,0.00,,---,0.00,VWS V14.00,2013-02-11 22:33:00,
2013-02-11 14:38:00,58.3,4.0,30.10,North,355,31.0,35.0,11,0.00,,---,0.00,VWS V14.00,2013-02-11 22:38:00,
2013-02-11 14:43:00,58.1,3.9,30.10,North,5,19.0,29.0,11,0.00,,---,0.00,VWS V14.00,2013-02-11 22:43:00,
2013-02-11 14:48:00,58.0,3.8,30.10,NNE,15,16.0,32.0,11,0.00,,---,0.00,VWS V14.00,2013-02-11 22:48:00,
2013-02-11 14:53:00,58.3,4.0,30.10,NE,46,24.0,24.0,11,0.00,,---,0.00,VWS V14.00,2013-02-11 22:53:00,
2013-02-11 14:58:00,58.4,4.1,30.10,NNE,22,28.0,32.0,11,0.00,,---,0.00,VWS V14.00,2013-02-11 22:58:00,
2013-02-11 15:03:00,58.3,4.0,30.10,NW,321,31.0,42.0,11,0.00,,---,0.00,VWS V14.00,2013-02-11 23:03:00,
2013-02-11 15:08:00,58.2,4.0,30.11,NNE,19,14.0,22.0,11,0.00,,---,0.00,VWS V14.00,2013-02-11 23:08:00,
2013-02-11 15:13:00,58.2,4.0,30.10,NNE,24,8.0,30.0,11,0.00,,---,0.00,VWS V14.00,2013-02-11 23:13:00,
2013-02-11 15:18:00,58.1,3.9,30.11,NNW,346,20.0,39.0,11,0.00,,---,0.00,VWS V14.00,2013-02-11 23:18:00,
2013-02-11 15:23:00,58.1,5.8,30.11,North,355,23.0,31.0,12,0.00,,---,0.00,VWS V14.00,2013-02-11 23:23:00,
2013-02-11 15:28:00,57.8,5.5,30.11,NNW,343,26.0,34.0,12,0.00,,---,0.00,VWS V14.00,2013-02-11 23:28:00,
2013-02-11 15:33:00,57.8,3.7,30.11,NNW,344,29.0,29.0,11,0.00,,---,0.00,VWS V14.00,2013-02-11 23:33:00,
2013-02-11 15:38:00,58.1,3.9,30.11,NW,320,22.0,30.0,11,0.00,,---,0.00,VWS V14.00,2013-02-11 23:38:00,
2013-02-11 15:43:00,58.0,3.8,30.11,NNE,13,11.0,27.0,11,0.00,,---,0.00,VWS V14.00,2013-02-11 23:43:00,
2013-02-11 15:48:00,58.1,3.9,30.11,NNW,345,15.0,16.0,11,0.00,,---,0.00,VWS V14.00,2013-02-11 23:48:00,
2013-02-11 15:53:00,58.1,3.9,30.11,NNW,342,15.0,25.0,11,0.00,,---,0.00,VWS V14.00,2013-02-11 23:53:00,
2013-02-11 15:58:00,57.7,3.6,30.12,NW,325,20.0,30.0,11,0.00,,---,0.00,VWS V14.00,2013-02-11 23:58:00,
2013-02-11 16:03:00,57.6,3.5,30.11,North,5,19.0,36.0,11,0.00,,---,0.00,VWS V14.00,2013-02-12 00:03:00,
2013-02-11 16:08:00,57.6,3.5,30.12,North,355,14.0,28.0,11,0.00,,---,0.00,VWS V14.00,2013-02-12 00:08:00,
2013-02-11 16:13:00,57.6,3.5,30.12,NW,325,31.0,31.0,11,0.00,,---,0.00,VWS V14.00,2013-02-12 00:13:00,
2013-02-11 16:18:00,57.4,3.3,30.13,NW,319,10.0,30.0,11,0.00,,---,0.00,VWS V14.00,2013-02-12 00:18:00,
2013-02-11 16:23:00,57.5,3.4,30.12,NNW,336,7.0,22.0,11,0.00,,---,0.00,VWS V14.00,2013-02-12 00:23:00,
2013-02-11 16:28:00,57.5,3.4,30.12,North,5,10.0,28.0,11,0.00,,---,0.00,VWS V14.00,2013-02-12 00:28:00,
2013-02-11 16:33:00,57.1,3.1,30.12,NNE,15,8.0,16.0,11,0.00,,---,0.00,VWS V14.00,2013-02-12 00:33:00,
2013-02-11 16:38:00,57.1,3.1,30.13,NNE,26,16.0,27.0,11,0.00,,---,0.00,VWS V14.00,2013-02-12 00:38:00,
2013-02-11 16:43:00,56.9,2.9,30.13,NNW,331,15.0,24.0,11,0.00,,---,0.00,VWS V14.00,2013-02-12 00:43:00,
2013-02-11 16:48:00,56.5,2.6,30.13,NNE,12,13.0,31.0,11,0.00,,---,0.00,VWS V14.00,2013-02-12 00:48:00,
2013-02-11 16:53:00,56.4,4.4,30.14,NNW,347,19.0,25.0,12,0.00,,---,0.00,VWS V14.00,2013-02-12 00:53:00,
2013-02-11 16:58:00,56.3,4.4,30.13,NNW,340,16.0,32.0,12,0.00,,---,0.00,VWS V14.00,2013-02-12 00:58:00,
2013-02-11 17:03:00,56.1,4.2,30.14,North,5,4.0,24.0,12,0.00,,---,0.00,VWS V14.00,2013-02-12 01:03:00,
2013-02-11 17:08:00,55.6,3.8,30.14,North,355,15.0,17.0,12,0.00,,---,0.00,VWS V14.00,2013-02-12 01:08:00,
2013-02-11 17:13:00,55.3,5.3,30.14,North,5,8.0,15.0,13,0.00,,---,0.00,VWS V14.00,2013-02-12 01:13:00,
2013-02-11 17:18:00,55.0,5.1,30.14,North,360,5.0,11.0,13,0.00,,---,0.00,VWS V14.00,2013-02-12 01:18:00,
2013-02-11 17:23:00,54.8,4.9,30.14,North,351,9.0,12.0,13,0.00,,---,0.00,VWS V14.00,2013-02-12 01:23:00,
2013-02-11 17:28:00,54.7,4.8,30.14,NNE,23,16.0,27.0,13,0.00,,---,0.00,VWS V14.00,2013-02-12 01:28:00,
2013-02-11 17:33:00,54.6,4.8,30.15,North,11,12.0,17.0,13,0.00,,---,0.00,VWS V14.00,2013-02-12 01:33:00,
2013-02-11 17:38:00,54.5,4.7,30.15,North,355,8.0,27.0,13,0.00,,---,0.00,VWS V14.00,2013-02-12 01:38:00,
2013-02-11 17:43:00,54.4,4.6,30.15,NNE,30,24.0,24.0,13,0.00,,---,0.00,VWS V14.00,2013-02-12 01:43:00,
2013-02-11 17:48:00,54.4,4.6,30.15,North,360,4.0,18.0,13,0.00,,---,0.00,VWS V14.00,2013-02-12 01:48:00,
2013-02-11 17:53:00,54.2,4.4,30.16,North,5,14.0,17.0,13,0.00,,---,0.00,VWS V14.00,2013-02-12 01:53:00,
2013-02-11 17:58:00,54.0,5.9,30.16,North,11,13.0,20.0,14,0.00,,---,0.00,VWS V14.00,2013-02-12 01:58:00,
2013-02-11 18:03:00,54.0,5.9,30.16,NNE,17,6.0,17.0,14,0.00,,---,0.00,VWS V14.00,2013-02-12 02:03:00,
2013-02-11 18:08:00,53.8,5.7,30.16,North,5,11.0,12.0,14,0.00,,---,0.00,VWS V14.00,2013-02-12 02:08:00,
2013-02-11 18:13:00,53.7,5.7,30.16,North,5,18.0,22.0,14,0.00,,---,0.00,VWS V14.00,2013-02-12 02:13:00,
2013-02-11 18:18:00,53.6,5.6,30.16,NNE,13,13.0,18.0,14,0.00,,---,0.00,VWS V14.00,2013-02-12 02:18:00,
2013-02-11 18:23:00,53.3,5.3,30.16,NNE,29,14.0,17.0,14,0.00,,---,0.00,VWS V14.00,2013-02-12 02:23:00,
2013-02-11 18:28:00,53.3,5.3,30.16,NNE,12,12.0,22.0,14,0.00,,---,0.00,VWS V14.00,2013-02-12 02:28:00,
2013-02-11 18:33:00,53.3,5.3,30.16,NNE,17,5.0,21.0,14,0.00,,---,0.00,VWS V14.00,2013-02-12 02:33:00,
2013-02-11 18:38:00,53.3,5.3,30.16,NNE,14,9.0,24.0,14,0.00,,---,0.00,VWS V14.00,2013-02-12 02:38:00,
2013-02-11 18:43:00,53.0,5.1,30.16,North,11,10.0,18.0,14,0.00,,---,0.00,VWS V14.00,2013-02-12 02:43:00,
2013-02-11 18:48:00,53.1,5.2,30.16,North,11,12.0,19.0,14,0.00,,---,0.00,VWS V14.00,2013-02-12 02:48:00,
2013-02-11 18:53:00,52.8,6.4,30.17,NNE,15,8.0,16.0,15,0.00,,---,0.00,VWS V14.00,2013-02-12 02:53:00,
2013-02-11 18:58:00,52.7,6.4,30.17,NNE,19,16.0,16.0,15,0.00,,---,0.00,VWS V14.00,2013-02-12 02:58:00,
2013-02-11 19:03:00,52.7,4.8,30.17,North,360,4.0,24.0,14,0.00,,---,0.00,VWS V14.00,2013-02-12 03:03:00,
2013-02-11 19:08:00,52.7,6.4,30.17,North,11,5.0,10.0,15,0.00,,---,0.00,VWS V14.00,2013-02-12 03:08:00,
2013-02-11 19:13:00,52.5,4.7,30.17,NNE,18,7.0,16.0,14,0.00,,---,0.00,VWS V14.00,2013-02-12 03:13:00,
2013-02-11 19:18:00,52.1,5.9,30.17,NNE,17,4.0,12.0,15,0.00,,---,0.00,VWS V14.00,2013-02-12 03:18:00,
2013-02-11 19:23:00,52.0,5.8,30.17,NNE,12,9.0,17.0,15,0.00,,---,0.00,VWS V14.00,2013-02-12 03:23:00,
2013-02-11 19:28:00,52.1,5.9,30.17,NNE,12,0.0,6.0,15,0.00,,---,0.00,VWS V14.00,2013-02-12 03:28:00,
2013-02-11 19:34:00,51.9,5.7,30.17,NNE,12,2.0,8.0,15,0.00,,---,0.00,VWS V14.00,2013-02-12 03:34:00,
2013-02-11 19:39:00,51.7,5.6,30.17,NNE,12,3.0,3.0,15,0.00,,---,0.00,VWS V14.00,2013-02-12 03:39:00,
2013-02-11 19:44:00,51.2,5.2,30.17,NNE,12,2.0,4.0,15,0.00,,---,0.00,VWS V14.00,2013-02-12 03:44:00,
2013-02-11 19:49:00,50.7,6.2,30.18,NNE,12,0.0,3.0,16,0.00,,---,0.00,VWS V14.00,2013-02-12 03:49:00,
2013-02-11 19:54:00,50.5,6.0,30.18,NNE,12,2.0,9.0,16,0.00,,---,0.00,VWS V14.00,2013-02-12 03:54:00,
2013-02-11 19:59:00,50.6,6.1,30.18,NNE,12,7.0,10.0,16,0.00,,---,0.00,VWS V14.00,2013-02-12 03:59:00,
2013-02-11 20:04:00,50.8,6.2,30.18,NW,320,3.0,18.0,16,0.00,,---,0.00,VWS V14.00,2013-02-12 04:04:00,
2013-02-11 20:09:00,50.8,6.2,30.18,NW,320,4.0,7.0,16,0.00,,---,0.00,VWS V14.00,2013-02-12 04:09:00,
2013-02-11 20:14:00,50.6,6.1,30.18,NW,320,2.0,5.0,16,0.00,,---,0.00,VWS V14.00,2013-02-12 04:14:00,
2013-02-11 20:19:00,50.4,5.9,30.19,NW,321,0.0,6.0,16,0.00,,---,0.00,VWS V14.00,2013-02-12 04:19:00,
2013-02-11 20:24:00,50.5,6.0,30.19,NW,321,2.0,11.0,16,0.00,,---,0.00,VWS V14.00,2013-02-12 04:24:00,
2013-02-11 20:29:00,50.6,7.4,30.19,NW,321,4.0,5.0,17,0.00,,---,0.00,VWS V14.00,2013-02-12 04:29:00,
2013-02-11 20:34:00,50.5,7.3,30.19,NW,321,8.0,10.0,17,0.00,,---,0.00,VWS V14.00,2013-02-12 04:34:00,
2013-02-11 20:39:00,50.4,7.2,30.19,NW,321,2.0,10.0,17,0.00,,---,0.00,VWS V14.00,2013-02-12 04:39:00,
2013-02-11 20:44:00,50.2,7.1,30.19,NW,321,2.0,8.0,17,0.00,,---,0.00,VWS V14.00,2013-02-12 04:44:00,
2013-02-11 20:49:00,50.0,6.9,30.19,NW,321,1.0,5.0,17,0.00,,---,0.00,VWS V14.00,2013-02-12 04:49:00,
2013-02-11 20:54:00,49.7,6.7,30.19,NW,321,0.0,2.0,17,0.00,,---,0.00,VWS V14.00,2013-02-12 04:54:00,
2013-02-11 20:59:00,49.1,7.4,30.20,NW,321,0.0,0.0,18,0.00,,---,0.00,VWS V14.00,2013-02-12 04:59:00,
2013-02-11 21:01:00,48.6,7.0,30.19,NW,321,0.0,0.0,18,0.00,,---,0.00,VWS V14.00,2013-02-12 05:01:00,
2013-02-11 21:04:00,48.3,6.8,30.20,NW,321,0.0,0.0,18,0.00,,---,0.00,VWS V14.00,2013-02-12 05:04:00,
2013-02-11 21:06:00,48.0,7.7,30.20,NW,321,0.0,0.0,19,0.00,,---,0.00,VWS V14.00,2013-02-12 05:06:00,
2013-02-11 21:11:00,47.5,7.3,30.20,NW,321,0.0,0.0,19,0.00,,---,0.00,VWS V14.00,2013-02-12 05:11:00,
2013-02-11 21:16:00,47.2,7.1,30.20,NW,321,4.0,4.0,19,0.00,,---,0.00,VWS V14.00,2013-02-12 05:16:00,
2013-02-11 21:19:00,47.0,8.0,30.20,NW,321,1.0,4.0,20,0.00,,---,0.00,VWS V14.00,2013-02-12 05:19:00,
2013-02-11 21:24:00,47.3,8.3,30.20,NW,321,2.0,4.0,20,0.00,,---,0.00,VWS V14.00,2013-02-12 05:24:00,
2013-02-11 21:29:00,47.1,8.1,30.20,NW,321,2.0,4.0,20,0.00,,---,0.00,VWS V14.00,2013-02-12 05:29:00,
2013-02-11 21:34:00,47.2,7.1,30.21,NW,321,2.0,4.0,19,0.00,,---,0.00,VWS V14.00,2013-02-12 05:34:00,
2013-02-11 21:39:00,47.2,8.2,30.21,NW,321,1.0,3.0,20,0.00,,---,0.00,VWS V14.00,2013-02-12 05:39:00,
2013-02-11 21:44:00,47.0,8.0,30.21,NW,321,2.0,4.0,20,0.00,,---,0.00,VWS V14.00,2013-02-12 05:44:00,
2013-02-11 21:49:00,46.9,7.9,30.21,NW,321,1.0,4.0,20,0.00,,---,0.00,VWS V14.00,2013-02-12 05:49:00,
2013-02-11 21:54:00,46.6,7.7,30.21,NW,321,2.0,4.0,20,0.00,,---,0.00,VWS V14.00,2013-02-12 05:54:00,
2013-02-11 21:59:00,46.4,8.6,30.21,NW,321,1.0,4.0,21,0.00,,---,0.00,VWS V14.00,2013-02-12 05:59:00,
2013-02-11 22:04:00,46.3,8.5,30.21,NW,321,1.0,2.0,21,0.00,,---,0.00,VWS V14.00,2013-02-12 06:04:00,
2013-02-11 22:09:00,45.7,8.0,30.21,NW,321,0.0,2.0,21,0.00,,---,0.00,VWS V14.00,2013-02-12 06:09:00,
2013-02-11 22:14:00,46.0,8.3,30.22,NW,321,0.0,2.0,21,0.00,,---,0.00,VWS V14.00,2013-02-12 06:14:00,
2013-02-11 22:19:00,45.6,9.0,30.22,NW,321,0.0,2.0,22,0.00,,---,0.00,VWS V14.00,2013-02-12 06:19:00,
2013-02-11 22:24:00,45.1,9.5,30.22,NW,321,2.0,4.0,23,0.00,,---,0.00,VWS V14.00,2013-02-12 06:24:00,
2013-02-11 22:29:00,44.8,9.3,30.22,NW,321,1.0,4.0,23,0.00,,---,0.00,VWS V14.00,2013-02-12 06:29:00,
2013-02-11 22:34:00,45.0,8.5,30.21,NW,321,3.0,4.0,22,0.00,,---,0.00,VWS V14.00,2013-02-12 06:34:00,
2013-02-11 22:39:00,45.4,8.8,30.21,NW,321,3.0,4.0,22,0.00,,---,0.00,VWS V14.00,2013-02-12 06:39:00,
2013-02-11 22:44:00,45.5,8.9,30.21,NW,321,2.0,10.0,22,0.00,,---,0.00,VWS V14.00,2013-02-12 06:44:00,
2013-02-11 22:49:00,45.9,8.2,30.22,NW,321,2.0,4.0,21,0.00,,---,0.00,VWS V14.00,2013-02-12 06:49:00,
2013-02-11 22:54:00,46.0,8.3,30.22,NW,321,4.0,12.0,21,0.00,,---,0.00,VWS V14.00,2013-02-12 06:54:00,
2013-02-11 22:59:00,46.0,8.3,30.22,NW,321,2.0,5.0,21,0.00,,---,0.00,VWS V14.00,2013-02-12 06:59:00,
2013-02-11 23:04:00,45.9,8.2,30.22,NW,321,3.0,4.0,21,0.00,,---,0.00,VWS V14.00,2013-02-12 07:04:00,
2013-02-11 23:09:00,46.0,8.3,30.22,NW,322,3.0,9.0,21,0.00,,---,0.00,VWS V14.00,2013-02-12 07:09:00,
2013-02-11 23:14:00,46.1,8.4,30.22,NW,322,4.0,9.0,21,0.00,,---,0.00,VWS V14.00,2013-02-12 07:14:00,
2013-02-11 23:19:00,46.4,8.6,30.22,NNW,330,7.0,13.0,21,0.00,,---,0.00,VWS V14.00,2013-02-12 07:19:00,
2013-02-11 23:24:00,46.8,7.9,30.22,NNW,344,7.0,14.0,20,0.00,,---,0.00,VWS V14.00,2013-02-12 07:24:00,
2013-02-11 23:29:00,46.8,8.9,30.23,NNW,346,4.0,13.0,21,0.00,,---,0.00,VWS V14.00,2013-02-12 07:29:00,
2013-02-11 23:34:00,46.8,7.9,30.22,NNW,348,7.0,14.0,20,0.00,,---,0.00,VWS V14.00,2013-02-12 07:34:00,
2013-02-11 23:39:00,46.6,8.8,30.23,North,360,9.0,17.0,21,0.00,,---,0.00,VWS V14.00,2013-02-12 07:39:00,
2013-02-11 23:44:00,46.8,7.9,30.23,North,5,6.0,14.0,20,0.00,,---,0.00,VWS V14.00,2013-02-12 07:44:00,
2013-02-11 23:49:00,46.8,8.9,30.22,North,5,3.0,7.0,21,0.00,,---,0.00,VWS V14.00,2013-02-12 07:49:00,
2013-02-11 23:54:00,46.8,7.9,30.22,North,5,4.0,9.0,20,0.00,,---,0.00,VWS V14.00,2013-02-12 07:54:00,
2013-02-11 23:59:00,47.8,7.6,30.22,North,5,4.0,4.0,19,0.00,,---,0.00,VWS V14.00,2013-02-12 07:59:00,